sensor_id;sensor_type;location;lat;lon;timestamp;pressure;altitude;pressure_sealevel;temperature
71463;BMP180;59266;52.608;13.260;2023-11-21T00:01:25;100461.00;;;7.90
71463;BMP180;59266;52.608;13.260;2023-11-21T00:03:52;100467.00;;;7.80
71463;BMP180;59266;52.608;13.260;2023-11-21T00:06:22;100459.00;;;7.70
71463;BMP180;59266;52.608;13.260;2023-11-21T00:08:48;100464.00;;;7.60
71463;BMP180;59266;52.608;13.260;2023-11-21T00:11:15;100469.00;;;7.60
71463;BMP180;59266;52.608;13.260;2023-11-21T00:13:41;100466.00;;;7.60
71463;BMP180;59266;52.608;13.260;2023-11-21T00:16:08;100470.00;;;7.70
71463;BMP180;59266;52.608;13.260;2023-11-21T00:18:35;100477.00;;;7.50
71463;BMP180;59266;52.608;13.260;2023-11-21T00:21:02;100472.00;;;7.70
71463;BMP180;59266;52.608;13.260;2023-11-21T00:23:30;100481.00;;;7.70
71463;BMP180;59266;52.608;13.260;2023-11-21T00:25:56;100484.00;;;7.70
71463;BMP180;59266;52.608;13.260;2023-11-21T00:28:24;100490.00;;;7.80
71463;BMP180;59266;52.608;13.260;2023-11-21T00:30:54;100491.00;;;7.80
71463;BMP180;59266;52.608;13.260;2023-11-21T00:33:23;100499.00;;;7.70
71463;BMP180;59266;52.608;13.260;2023-11-21T00:35:52;100491.00;;;7.80
71463;BMP180;59266;52.608;13.260;2023-11-21T00:38:19;100498.00;;;7.50
71463;BMP180;59266;52.608;13.260;2023-11-21T00:40:46;100493.00;;;7.60
71463;BMP180;59266;52.608;13.260;2023-11-21T00:43:13;100495.00;;;7.50
71463;BMP180;59266;52.608;13.260;2023-11-21T00:45:40;100486.00;;;7.30
71463;BMP180;59266;52.608;13.260;2023-11-21T00:48:06;100493.00;;;7.40
71463;BMP180;59266;52.608;13.260;2023-11-21T00:50:34;100498.00;;;7.30
71463;BMP180;59266;52.608;13.260;2023-11-21T00:53:01;100506.00;;;7.40
71463;BMP180;59266;52.608;13.260;2023-11-21T00:55:28;100497.00;;;7.40
71463;BMP180;59266;52.608;13.260;2023-11-21T00:57:56;100498.00;;;7.30
71463;BMP180;59266;52.608;13.260;2023-11-21T01:00:22;100501.00;;;7.30
71463;BMP180;59266;52.608;13.260;2023-11-21T01:02:49;100510.00;;;7.50
71463;BMP180;59266;52.608;13.260;2023-11-21T01:05:17;100512.00;;;7.20
71463;BMP180;59266;52.608;13.260;2023-11-21T01:07:43;100511.00;;;7.00
71463;BMP180;59266;52.608;13.260;2023-11-21T01:10:10;100513.00;;;7.10
71463;BMP180;59266;52.608;13.260;2023-11-21T01:12:37;100512.00;;;7.20
71463;BMP180;59266;52.608;13.260;2023-11-21T01:15:05;100521.00;;;7.10
71463;BMP180;59266;52.608;13.260;2023-11-21T01:17:35;100526.00;;;6.90
71463;BMP180;59266;52.608;13.260;2023-11-21T01:20:02;100530.00;;;7.00
71463;BMP180;59266;52.608;13.260;2023-11-21T01:22:32;100535.00;;;7.20
71463;BMP180;59266;52.608;13.260;2023-11-21T01:25:00;100540.00;;;7.10
71463;BMP180;59266;52.608;13.260;2023-11-21T01:27:26;100545.00;;;7.20
71463;BMP180;59266;52.608;13.260;2023-11-21T01:29:53;100547.00;;;7.10
71463;BMP180;59266;52.608;13.260;2023-11-21T01:32:20;100544.00;;;7.10
71463;BMP180;59266;52.608;13.260;2023-11-21T01:34:48;100540.00;;;7.10
71463;BMP180;59266;52.608;13.260;2023-11-21T01:37:14;100553.00;;;7.30
71463;BMP180;59266;52.608;13.260;2023-11-21T01:39:41;100549.00;;;7.10
71463;BMP180;59266;52.608;13.260;2023-11-21T01:42:08;100560.00;;;7.00
71463;BMP180;59266;52.608;13.260;2023-11-21T01:44:34;100549.00;;;7.00
71463;BMP180;59266;52.608;13.260;2023-11-21T01:47:02;100552.00;;;7.10
71463;BMP180;59266;52.608;13.260;2023-11-21T01:49:32;100557.00;;;7.00
71463;BMP180;59266;52.608;13.260;2023-11-21T01:52:00;100559.00;;;7.10
71463;BMP180;59266;52.608;13.260;2023-11-21T01:54:27;100557.00;;;7.00
71463;BMP180;59266;52.608;13.260;2023-11-21T01:56:59;100559.00;;;6.90
71463;BMP180;59266;52.608;13.260;2023-11-21T01:59:40;100567.00;;;6.70
71463;BMP180;59266;52.608;13.260;2023-11-21T02:02:08;100567.00;;;7.00
71463;BMP180;59266;52.608;13.260;2023-11-21T02:04:36;100580.00;;;7.00
71463;BMP180;59266;52.608;13.260;2023-11-21T02:07:03;100576.00;;;6.90
71463;BMP180;59266;52.608;13.260;2023-11-21T02:09:34;100573.00;;;6.90
71463;BMP180;59266;52.608;13.260;2023-11-21T02:12:01;100572.00;;;6.80
71463;BMP180;59266;52.608;13.260;2023-11-21T02:14:29;100568.00;;;6.70
71463;BMP180;59266;52.608;13.260;2023-11-21T02:16:55;100573.00;;;6.60
71463;BMP180;59266;52.608;13.260;2023-11-21T02:19:24;100574.00;;;6.60
71463;BMP180;59266;52.608;13.260;2023-11-21T02:21:52;100576.00;;;6.70
71463;BMP180;59266;52.608;13.260;2023-11-21T02:24:21;100577.00;;;6.90
71463;BMP180;59266;52.608;13.260;2023-11-21T02:26:48;100577.00;;;6.80
71463;BMP180;59266;52.608;13.260;2023-11-21T02:29:21;100586.00;;;6.90
71463;BMP180;59266;52.608;13.260;2023-11-21T02:31:55;100587.00;;;6.90
71463;BMP180;59266;52.608;13.260;2023-11-21T02:34:22;100586.00;;;6.60
71463;BMP180;59266;52.608;13.260;2023-11-21T02:36:49;100579.00;;;6.70
71463;BMP180;59266;52.608;13.260;2023-11-21T02:39:17;100596.00;;;6.60
71463;BMP180;59266;52.608;13.260;2023-11-21T02:41:46;100593.00;;;6.60
71463;BMP180;59266;52.608;13.260;2023-11-21T02:44:13;100600.00;;;6.50
71463;BMP180;59266;52.608;13.260;2023-11-21T02:46:39;100596.00;;;6.50
71463;BMP180;59266;52.608;13.260;2023-11-21T02:49:06;100590.00;;;6.50
71463;BMP180;59266;52.608;13.260;2023-11-21T02:51:33;100588.00;;;6.40
71463;BMP180;59266;52.608;13.260;2023-11-21T02:54:00;100598.00;;;6.50
71463;BMP180;59266;52.608;13.260;2023-11-21T02:56:29;100595.00;;;6.50
71463;BMP180;59266;52.608;13.260;2023-11-21T02:58:56;100596.00;;;6.50
71463;BMP180;59266;52.608;13.260;2023-11-21T03:01:22;100599.00;;;6.50
71463;BMP180;59266;52.608;13.260;2023-11-21T03:03:50;100597.00;;;6.50
71463;BMP180;59266;52.608;13.260;2023-11-21T03:06:18;100606.00;;;6.50
71463;BMP180;59266;52.608;13.260;2023-11-21T03:08:45;100608.00;;;6.40
71463;BMP180;59266;52.608;13.260;2023-11-21T03:11:13;100615.00;;;6.40
71463;BMP180;59266;52.608;13.260;2023-11-21T03:13:40;100605.00;;;6.40
71463;BMP180;59266;52.608;13.260;2023-11-21T03:16:10;100610.00;;;6.30
71463;BMP180;59266;52.608;13.260;2023-11-21T03:18:38;100610.00;;;6.30
71463;BMP180;59266;52.608;13.260;2023-11-21T03:21:06;100617.00;;;6.40
71463;BMP180;59266;52.608;13.260;2023-11-21T03:23:35;100627.00;;;6.40
71463;BMP180;59266;52.608;13.260;2023-11-21T03:26:06;100631.00;;;6.40
71463;BMP180;59266;52.608;13.260;2023-11-21T03:28:34;100639.00;;;6.50
71463;BMP180;59266;52.608;13.260;2023-11-21T03:31:01;100638.00;;;6.40
71463;BMP180;59266;52.608;13.260;2023-11-21T03:33:28;100646.00;;;6.40
71463;BMP180;59266;52.608;13.260;2023-11-21T03:35:54;100641.00;;;6.50
71463;BMP180;59266;52.608;13.260;2023-11-21T03:38:21;100654.00;;;6.50
71463;BMP180;59266;52.608;13.260;2023-11-21T03:40:48;100649.00;;;6.30
71463;BMP180;59266;52.608;13.260;2023-11-21T03:43:15;100659.00;;;6.20
71463;BMP180;59266;52.608;13.260;2023-11-21T03:45:42;100660.00;;;6.20
71463;BMP180;59266;52.608;13.260;2023-11-21T03:48:12;100656.00;;;6.20
71463;BMP180;59266;52.608;13.260;2023-11-21T03:50:39;100657.00;;;6.30
71463;BMP180;59266;52.608;13.260;2023-11-21T03:53:06;100671.00;;;6.20
71463;BMP180;59266;52.608;13.260;2023-11-21T03:55:32;100662.00;;;6.20
71463;BMP180;59266;52.608;13.260;2023-11-21T03:57:59;100663.00;;;6.10
71463;BMP180;59266;52.608;13.260;2023-11-21T04:00:26;100673.00;;;6.10
71463;BMP180;59266;52.608;13.260;2023-11-21T04:02:55;100665.00;;;6.20
71463;BMP180;59266;52.608;13.260;2023-11-21T04:05:22;100669.00;;;6.30
71463;BMP180;59266;52.608;13.260;2023-11-21T04:07:50;100676.00;;;6.00
71463;BMP180;59266;52.608;13.260;2023-11-21T04:10:20;100672.00;;;6.10
71463;BMP180;59266;52.608;13.260;2023-11-21T04:12:48;100681.00;;;6.10
71463;BMP180;59266;52.608;13.260;2023-11-21T04:15:15;100685.00;;;6.00
71463;BMP180;59266;52.608;13.260;2023-11-21T04:17:42;100694.00;;;6.20
71463;BMP180;59266;52.608;13.260;2023-11-21T04:20:12;100699.00;;;6.10
71463;BMP180;59266;52.608;13.260;2023-11-21T04:22:39;100694.00;;;6.20
71463;BMP180;59266;52.608;13.260;2023-11-21T04:25:13;100693.00;;;6.10
71463;BMP180;59266;52.608;13.260;2023-11-21T04:27:41;100698.00;;;6.00
71463;BMP180;59266;52.608;13.260;2023-11-21T04:30:11;100703.00;;;6.20
71463;BMP180;59266;52.608;13.260;2023-11-21T04:32:39;100714.00;;;6.10
71463;BMP180;59266;52.608;13.260;2023-11-21T04:35:08;100706.00;;;6.10
71463;BMP180;59266;52.608;13.260;2023-11-21T04:37:35;100700.00;;;6.20
71463;BMP180;59266;52.608;13.260;2023-11-21T04:40:03;100719.00;;;6.30
71463;BMP180;59266;52.608;13.260;2023-11-21T04:42:34;100720.00;;;6.30
71463;BMP180;59266;52.608;13.260;2023-11-21T04:45:04;100724.00;;;6.20
71463;BMP180;59266;52.608;13.260;2023-11-21T04:47:36;100718.00;;;6.00
71463;BMP180;59266;52.608;13.260;2023-11-21T04:50:04;100718.00;;;6.00
71463;BMP180;59266;52.608;13.260;2023-11-21T04:52:31;100727.00;;;6.00
71463;BMP180;59266;52.608;13.260;2023-11-21T04:54:59;100726.00;;;6.00
71463;BMP180;59266;52.608;13.260;2023-11-21T04:57:27;100722.00;;;6.00
71463;BMP180;59266;52.608;13.260;2023-11-21T04:59:55;100732.00;;;6.00
71463;BMP180;59266;52.608;13.260;2023-11-21T05:02:21;100730.00;;;6.00
71463;BMP180;59266;52.608;13.260;2023-11-21T05:05:04;100741.00;;;5.80
71463;BMP180;59266;52.608;13.260;2023-11-21T05:07:33;100728.00;;;5.80
71463;BMP180;59266;52.608;13.260;2023-11-21T05:10:04;100738.00;;;5.80
71463;BMP180;59266;52.608;13.260;2023-11-21T05:12:33;100751.00;;;5.80
71463;BMP180;59266;52.608;13.260;2023-11-21T05:15:05;100759.00;;;5.70
71463;BMP180;59266;52.608;13.260;2023-11-21T05:17:39;100752.00;;;5.70
71463;BMP180;59266;52.608;13.260;2023-11-21T05:20:11;100753.00;;;5.70
71463;BMP180;59266;52.608;13.260;2023-11-21T05:22:39;100751.00;;;5.70
71463;BMP180;59266;52.608;13.260;2023-11-21T05:25:07;100755.00;;;5.70
71463;BMP180;59266;52.608;13.260;2023-11-21T05:27:35;100763.00;;;5.60
71463;BMP180;59266;52.608;13.260;2023-11-21T05:30:03;100769.00;;;5.70
71463;BMP180;59266;52.608;13.260;2023-11-21T05:32:38;100765.00;;;5.70
71463;BMP180;59266;52.608;13.260;2023-11-21T05:35:05;100778.00;;;5.70
71463;BMP180;59266;52.608;13.260;2023-11-21T05:37:38;100774.00;;;5.70
71463;BMP180;59266;52.608;13.260;2023-11-21T05:40:08;100783.00;;;5.70
71463;BMP180;59266;52.608;13.260;2023-11-21T05:42:36;100789.00;;;5.90
71463;BMP180;59266;52.608;13.260;2023-11-21T05:45:05;100795.00;;;5.90
71463;BMP180;59266;52.608;13.260;2023-11-21T05:47:48;100802.00;;;5.70
71463;BMP180;59266;52.608;13.260;2023-11-21T05:50:16;100797.00;;;5.70
71463;BMP180;59266;52.608;13.260;2023-11-21T05:52:51;100787.00;;;5.90
71463;BMP180;59266;52.608;13.260;2023-11-21T05:55:18;100796.00;;;5.80
71463;BMP180;59266;52.608;13.260;2023-11-21T05:57:48;100801.00;;;5.70
71463;BMP180;59266;52.608;13.260;2023-11-21T06:00:15;100803.00;;;5.50
71463;BMP180;59266;52.608;13.260;2023-11-21T06:02:48;100814.00;;;5.60
71463;BMP180;59266;52.608;13.260;2023-11-21T06:05:19;100819.00;;;5.80
71463;BMP180;59266;52.608;13.260;2023-11-21T06:07:46;100814.00;;;5.60
71463;BMP180;59266;52.608;13.260;2023-11-21T06:10:13;100818.00;;;5.60
71463;BMP180;59266;52.608;13.260;2023-11-21T06:12:41;100829.00;;;5.50
71463;BMP180;59266;52.608;13.260;2023-11-21T06:15:10;100820.00;;;5.40
71463;BMP180;59266;52.608;13.260;2023-11-21T06:17:41;100828.00;;;5.40
71463;BMP180;59266;52.608;13.260;2023-11-21T06:20:09;100829.00;;;5.20
71463;BMP180;59266;52.608;13.260;2023-11-21T06:22:42;100834.00;;;5.40
71463;BMP180;59266;52.608;13.260;2023-11-21T06:25:11;100847.00;;;5.40
71463;BMP180;59266;52.608;13.260;2023-11-21T06:27:49;100848.00;;;5.20
71463;BMP180;59266;52.608;13.260;2023-11-21T06:30:17;100854.00;;;5.30
71463;BMP180;59266;52.608;13.260;2023-11-21T06:32:46;100860.00;;;5.30
71463;BMP180;59266;52.608;13.260;2023-11-21T06:35:14;100853.00;;;5.10
71463;BMP180;59266;52.608;13.260;2023-11-21T06:37:43;100867.00;;;5.20
71463;BMP180;59266;52.608;13.260;2023-11-21T06:40:17;100868.00;;;5.20
71463;BMP180;59266;52.608;13.260;2023-11-21T06:42:45;100864.00;;;5.20
71463;BMP180;59266;52.608;13.260;2023-11-21T06:45:13;100870.00;;;5.20
71463;BMP180;59266;52.608;13.260;2023-11-21T06:47:41;100879.00;;;5.10
71463;BMP180;59266;52.608;13.260;2023-11-21T06:50:08;100884.00;;;5.20
71463;BMP180;59266;52.608;13.260;2023-11-21T06:52:35;100889.00;;;5.10
71463;BMP180;59266;52.608;13.260;2023-11-21T06:55:02;100887.00;;;5.30
71463;BMP180;59266;52.608;13.260;2023-11-21T06:57:31;100890.00;;;5.30
71463;BMP180;59266;52.608;13.260;2023-11-21T06:59:57;100877.00;;;5.30
71463;BMP180;59266;52.608;13.260;2023-11-21T07:02:24;100895.00;;;5.30
71463;BMP180;59266;52.608;13.260;2023-11-21T07:04:51;100884.00;;;5.20
71463;BMP180;59266;52.608;13.260;2023-11-21T07:07:19;100890.00;;;5.30
71463;BMP180;59266;52.608;13.260;2023-11-21T07:09:46;100908.00;;;5.40
71463;BMP180;59266;52.608;13.260;2023-11-21T07:12:14;100902.00;;;5.30
71463;BMP180;59266;52.608;13.260;2023-11-21T07:14:41;100896.00;;;5.30
71463;BMP180;59266;52.608;13.260;2023-11-21T07:17:11;100896.00;;;5.50
71463;BMP180;59266;52.608;13.260;2023-11-21T07:19:39;100896.00;;;5.40
71463;BMP180;59266;52.608;13.260;2023-11-21T07:22:06;100894.00;;;5.40
71463;BMP180;59266;52.608;13.260;2023-11-21T07:24:32;100900.00;;;5.50
71463;BMP180;59266;52.608;13.260;2023-11-21T07:26:59;100894.00;;;5.50
71463;BMP180;59266;52.608;13.260;2023-11-21T07:29:27;100900.00;;;5.60
71463;BMP180;59266;52.608;13.260;2023-11-21T07:31:56;100914.00;;;5.50
71463;BMP180;59266;52.608;13.260;2023-11-21T07:34:23;100899.00;;;5.60
71463;BMP180;59266;52.608;13.260;2023-11-21T07:36:50;100911.00;;;5.60
71463;BMP180;59266;52.608;13.260;2023-11-21T07:39:17;100911.00;;;5.70
71463;BMP180;59266;52.608;13.260;2023-11-21T07:41:44;100907.00;;;5.70
71463;BMP180;59266;52.608;13.260;2023-11-21T07:44:16;100916.00;;;5.70
71463;BMP180;59266;52.608;13.260;2023-11-21T07:46:44;100919.00;;;5.80
71463;BMP180;59266;52.608;13.260;2023-11-21T07:49:12;100921.00;;;5.90
71463;BMP180;59266;52.608;13.260;2023-11-21T07:51:43;100924.00;;;6.00
71463;BMP180;59266;52.608;13.260;2023-11-21T07:54:10;100932.00;;;5.90
71463;BMP180;59266;52.608;13.260;2023-11-21T07:56:37;100932.00;;;5.90
71463;BMP180;59266;52.608;13.260;2023-11-21T07:59:08;100945.00;;;5.60
71463;BMP180;59266;52.608;13.260;2023-11-21T08:01:35;100946.00;;;5.70
71463;BMP180;59266;52.608;13.260;2023-11-21T08:04:02;100943.00;;;5.60
71463;BMP180;59266;52.608;13.260;2023-11-21T08:06:31;100942.00;;;5.50
71463;BMP180;59266;52.608;13.260;2023-11-21T08:08:58;100949.00;;;5.50
71463;BMP180;59266;52.608;13.260;2023-11-21T08:11:25;100958.00;;;5.50
71463;BMP180;59266;52.608;13.260;2023-11-21T08:13:54;100956.00;;;5.60
71463;BMP180;59266;52.608;13.260;2023-11-21T08:16:21;100944.00;;;5.50
71463;BMP180;59266;52.608;13.260;2023-11-21T08:18:48;100956.00;;;5.50
71463;BMP180;59266;52.608;13.260;2023-11-21T08:21:16;100966.00;;;5.60
71463;BMP180;59266;52.608;13.260;2023-11-21T08:23:42;100963.00;;;5.70
71463;BMP180;59266;52.608;13.260;2023-11-21T08:26:10;100963.00;;;5.80
71463;BMP180;59266;52.608;13.260;2023-11-21T08:28:37;100968.00;;;5.70
71463;BMP180;59266;52.608;13.260;2023-11-21T08:31:04;100973.00;;;5.90
71463;BMP180;59266;52.608;13.260;2023-11-21T08:33:31;100974.00;;;6.00
71463;BMP180;59266;52.608;13.260;2023-11-21T08:35:57;100967.00;;;6.00
71463;BMP180;59266;52.608;13.260;2023-11-21T08:38:24;100977.00;;;6.10
71463;BMP180;59266;52.608;13.260;2023-11-21T08:40:51;100985.00;;;5.90
71463;BMP180;59266;52.608;13.260;2023-11-21T08:43:17;100986.00;;;5.90
71463;BMP180;59266;52.608;13.260;2023-11-21T08:45:47;100990.00;;;5.90
71463;BMP180;59266;52.608;13.260;2023-11-21T08:48:14;100990.00;;;6.00
71463;BMP180;59266;52.608;13.260;2023-11-21T08:50:41;100991.00;;;5.70
71463;BMP180;59266;52.608;13.260;2023-11-21T08:53:09;101000.00;;;5.70
71463;BMP180;59266;52.608;13.260;2023-11-21T08:55:37;101002.00;;;5.70
71463;BMP180;59266;52.608;13.260;2023-11-21T08:58:04;101002.00;;;5.60
71463;BMP180;59266;52.608;13.260;2023-11-21T09:00:32;101003.00;;;5.80
71463;BMP180;59266;52.608;13.260;2023-11-21T09:03:01;101009.00;;;5.70
71463;BMP180;59266;52.608;13.260;2023-11-21T09:05:30;101006.00;;;5.60
71463;BMP180;59266;52.608;13.260;2023-11-21T09:07:56;101021.00;;;5.60
71463;BMP180;59266;52.608;13.260;2023-11-21T09:10:23;101017.00;;;5.70
71463;BMP180;59266;52.608;13.260;2023-11-21T09:12:52;101017.00;;;5.70
71463;BMP180;59266;52.608;13.260;2023-11-21T09:15:18;101029.00;;;5.60
71463;BMP180;59266;52.608;13.260;2023-11-21T09:17:47;101036.00;;;5.70
71463;BMP180;59266;52.608;13.260;2023-11-21T09:20:14;101030.00;;;5.70
71463;BMP180;59266;52.608;13.260;2023-11-21T09:22:41;101022.00;;;5.70
71463;BMP180;59266;52.608;13.260;2023-11-21T09:25:08;101043.00;;;6.00
71463;BMP180;59266;52.608;13.260;2023-11-21T09:27:35;101042.00;;;6.00
71463;BMP180;59266;52.608;13.260;2023-11-21T09:30:05;101050.00;;;5.80
71463;BMP180;59266;52.608;13.260;2023-11-21T09:32:32;101057.00;;;5.90
71463;BMP180;59266;52.608;13.260;2023-11-21T09:34:59;101053.00;;;5.90
71463;BMP180;59266;52.608;13.260;2023-11-21T09:37:31;101050.00;;;5.70
71463;BMP180;59266;52.608;13.260;2023-11-21T09:39:58;101055.00;;;5.70
71463;BMP180;59266;52.608;13.260;2023-11-21T09:42:36;101053.00;;;5.60
71463;BMP180;59266;52.608;13.260;2023-11-21T09:47:40;101066.00;;;5.60
71463;BMP180;59266;52.608;13.260;2023-11-21T09:50:08;101069.00;;;5.80
71463;BMP180;59266;52.608;13.260;2023-11-21T09:53:25;101078.00;;;5.90
71463;BMP180;59266;52.608;13.260;2023-11-21T09:55:27;101078.00;;;5.80
71463;BMP180;59266;52.608;13.260;2023-11-21T09:57:58;101071.00;;;5.70
71463;BMP180;59266;52.608;13.260;2023-11-21T10:00:25;101074.00;;;5.60
71463;BMP180;59266;52.608;13.260;2023-11-21T10:02:53;101079.00;;;5.50
71463;BMP180;59266;52.608;13.260;2023-11-21T10:05:21;101085.00;;;5.30
71463;BMP180;59266;52.608;13.260;2023-11-21T10:07:56;101084.00;;;5.30
71463;BMP180;59266;52.608;13.260;2023-11-21T10:10:24;101099.00;;;5.60
71463;BMP180;59266;52.608;13.260;2023-11-21T10:12:56;101092.00;;;5.40
71463;BMP180;59266;52.608;13.260;2023-11-21T10:15:23;101086.00;;;5.40
71463;BMP180;59266;52.608;13.260;2023-11-21T10:17:52;101079.00;;;5.20
71463;BMP180;59266;52.608;13.260;2023-11-21T10:20:20;101095.00;;;5.20
71463;BMP180;59266;52.608;13.260;2023-11-21T10:22:47;101084.00;;;5.00
71463;BMP180;59266;52.608;13.260;2023-11-21T10:25:14;101086.00;;;5.20
71463;BMP180;59266;52.608;13.260;2023-11-21T10:27:42;101093.00;;;5.30
71463;BMP180;59266;52.608;13.260;2023-11-21T10:30:10;101100.00;;;5.30
71463;BMP180;59266;52.608;13.260;2023-11-21T10:32:39;101101.00;;;5.30
71463;BMP180;59266;52.608;13.260;2023-11-21T10:35:08;101109.00;;;5.40
71463;BMP180;59266;52.608;13.260;2023-11-21T10:37:37;101100.00;;;5.40
71463;BMP180;59266;52.608;13.260;2023-11-21T10:40:07;101107.00;;;5.30
71463;BMP180;59266;52.608;13.260;2023-11-21T10:42:34;101107.00;;;5.30
71463;BMP180;59266;52.608;13.260;2023-11-21T10:45:03;101106.00;;;5.20
71463;BMP180;59266;52.608;13.260;2023-11-21T10:47:31;101110.00;;;5.30
71463;BMP180;59266;52.608;13.260;2023-11-21T10:50:00;101110.00;;;5.20
71463;BMP180;59266;52.608;13.260;2023-11-21T10:52:27;101120.00;;;5.30
71463;BMP180;59266;52.608;13.260;2023-11-21T10:54:55;101118.00;;;5.50
71463;BMP180;59266;52.608;13.260;2023-11-21T10:57:25;101122.00;;;5.30
71463;BMP180;59266;52.608;13.260;2023-11-21T10:59:54;101129.00;;;5.40
71463;BMP180;59266;52.608;13.260;2023-11-21T11:02:24;101123.00;;;5.30
71463;BMP180;59266;52.608;13.260;2023-11-21T11:04:56;101125.00;;;5.40
71463;BMP180;59266;52.608;13.260;2023-11-21T11:07:26;101133.00;;;5.20
71463;BMP180;59266;52.608;13.260;2023-11-21T11:09:54;101131.00;;;5.20
71463;BMP180;59266;52.608;13.260;2023-11-21T11:12:21;101137.00;;;5.30
71463;BMP180;59266;52.608;13.260;2023-11-21T11:14:51;101142.00;;;5.40
71463;BMP180;59266;52.608;13.260;2023-11-21T11:17:19;101135.00;;;5.30
71463;BMP180;59266;52.608;13.260;2023-11-21T11:19:47;101138.00;;;5.10
71463;BMP180;59266;52.608;13.260;2023-11-21T11:22:32;101139.00;;;5.10
71463;BMP180;59266;52.608;13.260;2023-11-21T11:25:23;101141.00;;;5.00
71463;BMP180;59266;52.608;13.260;2023-11-21T11:28:12;101151.00;;;5.30
71463;BMP180;59266;52.608;13.260;2023-11-21T11:31:02;101153.00;;;5.50
71463;BMP180;59266;52.608;13.260;2023-11-21T11:33:48;101156.00;;;5.50
71463;BMP180;59266;52.608;13.260;2023-11-21T11:36:38;101167.00;;;5.40
71463;BMP180;59266;52.608;13.260;2023-11-21T11:39:26;101165.00;;;5.30
71463;BMP180;59266;52.608;13.260;2023-11-21T11:41:56;101166.00;;;5.40
71463;BMP180;59266;52.608;13.260;2023-11-21T11:44:54;101172.00;;;5.50
71463;BMP180;59266;52.608;13.260;2023-11-21T11:47:25;101169.00;;;5.30
71463;BMP180;59266;52.608;13.260;2023-11-21T11:50:09;101179.00;;;5.20
71463;BMP180;59266;52.608;13.260;2023-11-21T11:53:16;101193.00;;;5.30
71463;BMP180;59266;52.608;13.260;2023-11-21T11:55:44;101198.00;;;5.40
71463;BMP180;59266;52.608;13.260;2023-11-21T11:58:11;101191.00;;;5.50
71463;BMP180;59266;52.608;13.260;2023-11-21T12:00:38;101189.00;;;5.40
71463;BMP180;59266;52.608;13.260;2023-11-21T12:03:07;101205.00;;;5.60
71463;BMP180;59266;52.608;13.260;2023-11-21T12:05:36;101196.00;;;5.40
71463;BMP180;59266;52.608;13.260;2023-11-21T12:08:07;101205.00;;;5.20
71463;BMP180;59266;52.608;13.260;2023-11-21T12:10:36;101198.00;;;5.30
71463;BMP180;59266;52.608;13.260;2023-11-21T12:13:09;101204.00;;;5.40
71463;BMP180;59266;52.608;13.260;2023-11-21T12:15:37;101203.00;;;5.40
71463;BMP180;59266;52.608;13.260;2023-11-21T12:18:07;101203.00;;;5.50
71463;BMP180;59266;52.608;13.260;2023-11-21T12:20:34;101210.00;;;5.30
71463;BMP180;59266;52.608;13.260;2023-11-21T12:23:06;101221.00;;;5.20
71463;BMP180;59266;52.608;13.260;2023-11-21T12:25:36;101228.00;;;5.20
71463;BMP180;59266;52.608;13.260;2023-11-21T12:28:03;101232.00;;;5.20
71463;BMP180;59266;52.608;13.260;2023-11-21T12:30:33;101231.00;;;5.10
71463;BMP180;59266;52.608;13.260;2023-11-21T12:33:02;101241.00;;;4.90
71463;BMP180;59266;52.608;13.260;2023-11-21T12:35:34;101248.00;;;5.10
71463;BMP180;59266;52.608;13.260;2023-11-21T12:38:02;101242.00;;;5.00
71463;BMP180;59266;52.608;13.260;2023-11-21T12:40:29;101257.00;;;5.00
71463;BMP180;59266;52.608;13.260;2023-11-21T12:42:58;101247.00;;;4.80
71463;BMP180;59266;52.608;13.260;2023-11-21T12:45:28;101258.00;;;4.90
71463;BMP180;59266;52.608;13.260;2023-11-21T12:47:58;101261.00;;;4.80
71463;BMP180;59266;52.608;13.260;2023-11-21T12:50:27;101259.00;;;5.10
71463;BMP180;59266;52.608;13.260;2023-11-21T12:53:02;101254.00;;;5.10
71463;BMP180;59266;52.608;13.260;2023-11-21T12:55:34;101261.00;;;4.90
71463;BMP180;59266;52.608;13.260;2023-11-21T12:58:08;101256.00;;;4.80
71463;BMP180;59266;52.608;13.260;2023-11-21T13:00:47;101270.00;;;4.70
71463;BMP180;59266;52.608;13.260;2023-11-21T13:03:16;101270.00;;;4.70
71463;BMP180;59266;52.608;13.260;2023-11-21T13:05:46;101278.00;;;4.70
71463;BMP180;59266;52.608;13.260;2023-11-21T13:08:20;101285.00;;;4.70
71463;BMP180;59266;52.608;13.260;2023-11-21T13:10:54;101286.00;;;4.60
71463;BMP180;59266;52.608;13.260;2023-11-21T13:13:23;101283.00;;;4.60
71463;BMP180;59266;52.608;13.260;2023-11-21T13:15:55;101288.00;;;4.60
71463;BMP180;59266;52.608;13.260;2023-11-21T13:18:32;101299.00;;;4.50
71463;BMP180;59266;52.608;13.260;2023-11-21T13:21:01;101301.00;;;4.60
71463;BMP180;59266;52.608;13.260;2023-11-21T13:23:34;101305.00;;;4.70
71463;BMP180;59266;52.608;13.260;2023-11-21T13:26:02;101303.00;;;4.80
71463;BMP180;59266;52.608;13.260;2023-11-21T13:28:33;101302.00;;;4.50
71463;BMP180;59266;52.608;13.260;2023-11-21T13:31:03;101301.00;;;4.60
71463;BMP180;59266;52.608;13.260;2023-11-21T13:33:37;101301.00;;;4.70
71463;BMP180;59266;52.608;13.260;2023-11-21T13:36:06;101300.00;;;4.50
71463;BMP180;59266;52.608;13.260;2023-11-21T13:38:37;101307.00;;;4.60
71463;BMP180;59266;52.608;13.260;2023-11-21T13:41:09;101315.00;;;4.50
71463;BMP180;59266;52.608;13.260;2023-11-21T13:43:39;101321.00;;;4.50
71463;BMP180;59266;52.608;13.260;2023-11-21T13:46:06;101329.00;;;4.50
71463;BMP180;59266;52.608;13.260;2023-11-21T13:48:43;101332.00;;;4.30
71463;BMP180;59266;52.608;13.260;2023-11-21T13:51:18;101336.00;;;4.30
71463;BMP180;59266;52.608;13.260;2023-11-21T13:53:45;101339.00;;;4.30
71463;BMP180;59266;52.608;13.260;2023-11-21T13:56:14;101344.00;;;4.20
71463;BMP180;59266;52.608;13.260;2023-11-21T13:58:48;101356.00;;;4.10
71463;BMP180;59266;52.608;13.260;2023-11-21T14:01:22;101360.00;;;4.10
71463;BMP180;59266;52.608;13.260;2023-11-21T14:04:03;101363.00;;;4.10
71463;BMP180;59266;52.608;13.260;2023-11-21T14:06:46;101366.00;;;4.00
71463;BMP180;59266;52.608;13.260;2023-11-21T14:09:21;101382.00;;;4.00
71463;BMP180;59266;52.608;13.260;2023-11-21T14:11:54;101374.00;;;4.10